Time,TemperatureF,DewpointF,PressureIn,WindDirection,WindDirectionDegrees,WindSpeedMPH,WindSpeedGustMPH,Humidity,HourlyPrecipIn,Conditions,Clouds,dailyrainin,SoftwareType,DateUTC
2013-05-02 00:00:00,63.1,50.3,30.13,SE,127,0.0,0.0,63,0.00,,,0.00,Wunderground v.1.15,2013-05-02 04:00:00,
2013-05-02 00:05:00,63.1,50.7,30.13,SE,128,0.0,0.0,64,0.00,,,0.00,Wunderground v.1.15,2013-05-02 04:05:00,
2013-05-02 00:10:00,62.9,50.5,30.13,SE,128,0.0,0.0,64,0.00,,,0.00,Wunderground v.1.15,2013-05-02 04:10:00,
2013-05-02 00:15:00,62.7,50.3,30.13,SE,127,0.0,0.0,64,0.00,,,0.00,Wunderground v.1.15,2013-05-02 04:15:00,
2013-05-02 00:20:00,62.6,50.7,30.13,SE,128,0.0,0.0,65,0.00,,,0.00,Wunderground v.1.15,2013-05-02 04:20:00,
2013-05-02 00:25:00,62.3,50.0,30.13,SE,128,0.0,0.0,64,0.00,,,0.00,Wunderground v.1.15,2013-05-02 04:25:00,
2013-05-02 00:30:00,62.1,50.2,30.13,SE,128,0.0,0.0,65,0.00,,,0.00,Wunderground v.1.15,2013-05-02 04:30:00,
2013-05-02 00:40:00,61.8,50.3,30.13,SE,128,0.0,0.0,66,0.00,,,0.00,Wunderground v.1.15,2013-05-02 04:40:00,
2013-05-02 00:45:00,61.8,50.3,30.13,SE,128,0.0,0.0,66,0.00,,,0.00,Wunderground v.1.15,2013-05-02 04:45:00,
2013-05-02 00:55:00,61.5,49.6,30.13,SE,127,0.0,0.0,65,0.00,,,0.00,Wunderground v.1.15,2013-05-02 04:55:00,
2013-05-02 01:00:00,61.3,49.8,30.13,SE,128,0.0,0.0,66,0.00,,,0.00,Wunderground v.1.15,2013-05-02 05:00:00,
2013-05-02 01:10:00,61.2,49.7,30.13,SE,128,0.0,0.0,66,0.00,,,0.00,Wunderground v.1.15,2013-05-02 05:10:00,
2013-05-02 01:15:00,61.0,49.6,30.14,SE,128,0.0,0.0,66,0.00,,,0.00,Wunderground v.1.15,2013-05-02 05:15:00,
2013-05-02 01:25:00,61.0,49.1,30.14,SE,128,0.0,0.0,65,0.00,,,0.00,Wunderground v.1.15,2013-05-02 05:25:00,
2013-05-02 01:30:00,60.9,49.5,30.14,SE,128,0.0,0.0,66,0.00,,,0.00,Wunderground v.1.15,2013-05-02 05:30:00,
2013-05-02 01:40:00,61.0,49.1,30.14,SW,221,0.0,0.0,65,0.00,,,0.00,Wunderground v.1.15,2013-05-02 05:40:00,
2013-05-02 01:45:00,61.0,49.1,30.14,SW,221,0.0,0.0,65,0.00,,,0.00,Wunderground v.1.15,2013-05-02 05:45:00,
2013-05-02 01:55:00,61.3,48.6,30.14,SW,221,0.0,0.0,63,0.00,,,0.00,Wunderground v.1.15,2013-05-02 05:55:00,
2013-05-02 02:00:00,61.6,48.4,30.14,SSW,213,0.0,0.0,62,0.00,,,0.00,Wunderground v.1.15,2013-05-02 06:00:00,
2013-05-02 02:10:00,61.6,48.9,30.14,SSW,213,0.0,0.0,63,0.00,,,0.00,Wunderground v.1.15,2013-05-02 06:10:00,
2013-05-02 02:15:00,61.5,48.8,30.14,SSW,213,0.0,0.0,63,0.00,,,0.00,Wunderground v.1.15,2013-05-02 06:15:00,
2013-05-02 02:25:00,60.9,49.1,30.14,SSW,213,0.0,0.0,65,0.00,,,0.00,Wunderground v.1.15,2013-05-02 06:25:00,
2013-05-02 02:30:00,60.5,49.1,30.14,SSW,213,0.0,0.0,66,0.00,,,0.00,Wunderground v.1.15,2013-05-02 06:30:00,
2013-05-02 02:40:00,60.1,48.7,30.14,SSW,213,0.0,0.0,66,0.00,,,0.00,Wunderground v.1.15,2013-05-02 06:40:00,
2013-05-02 02:45:00,60.1,49.1,30.14,SSW,213,0.0,0.0,67,0.00,,,0.00,Wunderground v.1.15,2013-05-02 06:45:00,
2013-05-02 02:55:00,59.6,49.0,30.14,SSW,213,0.0,0.0,68,0.00,,,0.00,Wunderground v.1.15,2013-05-02 06:55:00,
2013-05-02 03:00:00,59.5,48.9,30.14,SSW,213,0.0,0.0,68,0.00,,,0.00,Wunderground v.1.15,2013-05-02 07:00:00,
2013-05-02 03:10:00,59.2,48.6,30.14,SSW,213,0.0,0.0,68,0.00,,,0.00,Wunderground v.1.15,2013-05-02 07:10:00,
2013-05-02 03:15:00,59.0,48.4,30.14,SSW,213,0.0,0.0,68,0.00,,,0.00,Wunderground v.1.15,2013-05-02 07:15:00,
2013-05-02 03:25:00,58.7,48.6,30.14,SSW,213,0.0,0.0,69,0.00,,,0.00,Wunderground v.1.15,2013-05-02 07:25:00,
2013-05-02 03:30:00,58.6,48.8,30.14,SSW,213,0.0,0.0,70,0.00,,,0.00,Wunderground v.1.15,2013-05-02 07:30:00,
2013-05-02 03:40:00,58.3,48.9,30.14,SSW,213,0.0,0.0,71,0.00,,,0.00,Wunderground v.1.15,2013-05-02 07:40:00,
2013-05-02 03:45:00,58.1,48.7,30.14,SSW,213,0.0,0.0,71,0.00,,,0.00,Wunderground v.1.15,2013-05-02 07:45:00,
2013-05-02 03:55:00,58.6,48.8,30.14,SSW,213,0.0,0.0,70,0.00,,,0.00,Wunderground v.1.15,2013-05-02 07:55:00,
2013-05-02 04:00:00,58.7,48.6,30.14,SSW,213,0.0,0.0,69,0.00,,,0.00,Wunderground v.1.15,2013-05-02 08:00:00,
2013-05-02 04:10:00,58.7,48.9,30.14,SSW,213,0.0,0.0,70,0.00,,,0.00,Wunderground v.1.15,2013-05-02 08:10:00,
2013-05-02 04:15:00,58.6,48.8,30.15,SSW,213,0.0,0.0,70,0.00,,,0.00,Wunderground v.1.15,2013-05-02 08:15:00,
2013-05-02 04:25:00,58.3,48.2,30.15,SSW,213,0.0,0.0,69,0.00,,,0.00,Wunderground v.1.15,2013-05-02 08:25:00,
2013-05-02 04:30:00,58.3,48.6,30.15,SSW,213,0.0,0.0,70,0.00,,,0.00,Wunderground v.1.15,2013-05-02 08:30:00,
2013-05-02 04:40:00,58.0,48.3,30.15,SSW,213,0.0,0.0,70,0.00,,,0.00,Wunderground v.1.15,2013-05-02 08:40:00,
2013-05-02 04:45:00,57.6,47.9,30.15,SSW,213,0.0,0.0,70,0.00,,,0.00,Wunderground v.1.15,2013-05-02 08:45:00,
2013-05-02 04:55:00,57.2,47.9,30.15,SSW,213,0.0,0.0,71,0.00,,,0.00,Wunderground v.1.15,2013-05-02 08:55:00,
2013-05-02 05:00:00,56.9,48.0,30.15,SSW,213,0.0,0.0,72,0.00,,,0.00,Wunderground v.1.15,2013-05-02 09:00:00,
2013-05-02 05:10:00,56.3,47.4,30.15,SSW,213,0.0,0.0,72,0.00,,,0.00,Wunderground v.1.15,2013-05-02 09:10:00,
2013-05-02 05:15:00,56.0,47.5,30.15,SSW,213,0.0,0.0,73,0.00,,,0.00,Wunderground v.1.15,2013-05-02 09:15:00,
2013-05-02 05:25:00,55.6,47.4,30.15,SSW,213,0.0,0.0,74,0.00,,,0.00,Wunderground v.1.15,2013-05-02 09:25:00,
2013-05-02 05:30:00,55.4,47.2,30.15,SSW,213,0.0,0.0,74,0.00,,,0.00,Wunderground v.1.15,2013-05-02 09:30:00,
2013-05-02 05:40:00,55.0,47.2,30.15,SSW,213,0.0,0.0,75,0.00,,,0.00,Wunderground v.1.15,2013-05-02 09:40:00,
2013-05-02 05:45:00,54.8,47.0,30.15,SSW,213,0.0,0.0,75,0.00,,,0.00,Wunderground v.1.15,2013-05-02 09:45:00,
2013-05-02 05:55:00,54.7,47.3,30.15,SSW,213,0.0,0.0,76,0.00,,,0.00,Wunderground v.1.15,2013-05-02 09:55:00,
2013-05-02 06:00:00,54.7,47.3,30.16,SSW,213,0.0,0.0,76,0.00,,,0.00,Wunderground v.1.15,2013-05-02 10:00:00,
2013-05-02 06:10:00,54.5,47.8,30.16,SSW,213,0.0,0.0,78,0.00,,,0.00,Wunderground v.1.15,2013-05-02 10:10:00,
2013-05-02 06:15:00,54.4,47.7,30.16,SSW,213,0.0,0.0,78,0.00,,,0.00,Wunderground v.1.15,2013-05-02 10:15:00,
2013-05-02 06:25:00,54.2,47.5,30.16,SSW,213,0.0,0.0,78,0.00,,,0.00,Wunderground v.1.15,2013-05-02 10:25:00,
2013-05-02 06:30:00,54.4,47.0,30.16,SSW,213,0.0,0.0,76,0.00,,,0.00,Wunderground v.1.15,2013-05-02 10:30:00,
2013-05-02 06:40:00,54.8,46.7,30.16,SSW,213,0.0,0.0,74,0.00,,,0.00,Wunderground v.1.15,2013-05-02 10:40:00,
2013-05-02 06:45:00,55.1,46.6,30.17,SSW,213,0.0,0.0,73,0.00,,,0.00,Wunderground v.1.15,2013-05-02 10:45:00,
2013-05-02 06:55:00,55.6,46.7,30.17,SSW,213,0.0,0.0,72,0.00,,,0.00,Wunderground v.1.15,2013-05-02 10:55:00,
2013-05-02 07:00:00,55.6,46.7,30.17,SSW,213,0.0,0.0,72,0.00,,,0.00,Wunderground v.1.15,2013-05-02 11:00:00,
2013-05-02 07:10:00,55.7,46.8,30.17,SSW,213,0.0,0.0,72,0.00,,,0.00,Wunderground v.1.15,2013-05-02 11:10:00,
2013-05-02 07:15:00,55.7,47.2,30.17,SSW,213,0.0,0.0,73,0.00,,,0.00,Wunderground v.1.15,2013-05-02 11:15:00,
2013-05-02 07:25:00,55.7,47.2,30.17,SSW,213,0.0,0.0,73,0.00,,,0.00,Wunderground v.1.15,2013-05-02 11:25:00,
2013-05-02 07:30:00,55.7,46.8,30.17,SSW,213,0.0,0.0,72,0.00,,,0.00,Wunderground v.1.15,2013-05-02 11:30:00,
2013-05-02 07:40:00,55.9,47.0,30.17,SSW,213,0.0,0.0,72,0.00,,,0.00,Wunderground v.1.15,2013-05-02 11:40:00,
2013-05-02 07:45:00,56.3,47.4,30.18,SSW,213,0.0,0.0,72,0.00,,,0.00,Wunderground v.1.15,2013-05-02 11:45:00,
2013-05-02 07:55:00,57.0,46.5,30.18,SSW,213,0.0,0.0,68,0.00,,,0.00,Wunderground v.1.15,2013-05-02 11:55:00,
2013-05-02 08:00:00,57.3,46.8,30.18,SSW,213,0.0,0.0,68,0.00,,,0.00,Wunderground v.1.15,2013-05-02 12:00:00,
2013-05-02 08:10:00,57.8,46.5,30.18,SSW,205,0.0,0.0,66,0.00,,,0.00,Wunderground v.1.15,2013-05-02 12:10:00,
2013-05-02 08:15:00,58.1,46.8,30.19,SW,222,0.0,0.0,66,0.00,,,0.00,Wunderground v.1.15,2013-05-02 12:15:00,
2013-05-02 08:25:00,58.7,46.5,30.19,SW,222,0.0,0.0,64,0.00,,,0.00,Wunderground v.1.15,2013-05-02 12:25:00,
2013-05-02 08:30:00,59.0,46.4,30.19,SSE,162,0.0,0.0,63,0.00,,,0.00,Wunderground v.1.15,2013-05-02 12:30:00,
2013-05-02 08:40:00,59.8,46.3,30.19,SSE,150,0.0,0.0,61,0.00,,,0.00,Wunderground v.1.15,2013-05-02 12:40:00,
2013-05-02 08:45:00,60.4,46.4,30.19,SE,142,1.0,1.0,60,0.00,,,0.00,Wunderground v.1.15,2013-05-02 12:45:00,
2013-05-02 08:55:00,61.0,45.2,30.19,SSE,158,1.0,2.0,56,0.00,,,0.00,Wunderground v.1.15,2013-05-02 12:55:00,
2013-05-02 09:00:00,61.3,46.4,30.19,East,92,1.0,2.0,58,0.00,,,0.00,Wunderground v.1.15,2013-05-02 13:00:00,
2013-05-02 09:10:00,61.8,46.4,30.19,SE,134,1.0,1.0,57,0.00,,,0.00,Wunderground v.1.15,2013-05-02 13:10:00,
2013-05-02 09:15:00,62.0,46.6,30.19,SE,142,1.0,1.0,57,0.00,,,0.00,Wunderground v.1.15,2013-05-02 13:15:00,
2013-05-02 09:25:00,62.4,46.5,30.19,SE,131,1.0,1.0,56,0.00,,,0.00,Wunderground v.1.15,2013-05-02 13:25:00,
2013-05-02 09:30:00,62.6,47.6,30.19,SE,136,1.0,1.0,58,0.00,,,0.00,Wunderground v.1.15,2013-05-02 13:30:00,
2013-05-02 09:40:00,63.1,47.1,30.19,SE,138,1.0,1.0,56,0.00,,,0.00,Wunderground v.1.15,2013-05-02 13:40:00,
2013-05-02 09:45:00,63.2,48.6,30.19,SSE,147,1.0,1.0,59,0.00,,,0.00,Wunderground v.1.15,2013-05-02 13:45:00,
2013-05-02 09:55:00,64.0,48.9,30.19,SSE,148,0.0,1.0,58,0.00,,,0.00,Wunderground v.1.15,2013-05-02 13:55:00,
2013-05-02 10:00:00,64.7,50.5,30.19,SSE,148,0.0,1.0,60,0.00,,,0.00,Wunderground v.1.15,2013-05-02 14:00:00,
2013-05-02 10:10:00,65.3,50.6,30.19,SSE,165,1.0,1.0,59,0.00,,,0.00,Wunderground v.1.15,2013-05-02 14:10:00,
2013-05-02 10:15:00,65.2,49.6,30.18,SE,124,1.0,1.0,57,0.00,,,0.00,Wunderground v.1.15,2013-05-02 14:15:00,
2013-05-02 10:25:00,65.2,50.5,30.18,SE,129,1.0,2.0,59,0.00,,,0.00,Wunderground v.1.15,2013-05-02 14:25:00,
2013-05-02 10:30:00,65.8,50.6,30.18,SSW,201,1.0,2.0,58,0.00,,,0.00,Wunderground v.1.15,2013-05-02 14:30:00,
2013-05-02 10:40:00,66.6,51.4,30.18,SE,127,1.0,1.0,58,0.00,,,0.00,Wunderground v.1.15,2013-05-02 14:40:00,
2013-05-02 10:45:00,66.8,50.1,30.18,ESE,116,1.0,1.0,55,0.00,,,0.00,Wunderground v.1.15,2013-05-02 14:45:00,
2013-05-02 10:55:00,67.3,51.5,30.18,SSE,167,1.0,1.0,57,0.00,,,0.00,Wunderground v.1.15,2013-05-02 14:55:00,
2013-05-02 11:01:00,67.1,51.4,30.18,SE,146,1.0,1.0,57,0.00,,,0.00,Wunderground v.1.15,2013-05-02 15:01:00,
2013-05-02 11:10:00,67.9,51.6,30.18,ESE,119,1.0,2.0,56,0.00,,,0.00,Wunderground v.1.15,2013-05-02 15:10:00,
2013-05-02 11:15:00,67.4,50.7,30.18,ESE,123,1.0,1.0,55,0.00,,,0.00,Wunderground v.1.15,2013-05-02 15:15:00,
2013-05-02 11:25:00,68.1,51.3,30.18,SE,140,1.0,1.0,55,0.00,,,0.00,Wunderground v.1.15,2013-05-02 15:25:00,
2013-05-02 11:30:00,68.4,51.6,30.17,SE,140,1.0,2.0,55,0.00,,,0.00,Wunderground v.1.15,2013-05-02 15:30:00,
2013-05-02 11:40:00,69.1,53.7,30.17,SE,126,1.0,2.0,58,0.00,,,0.00,Wunderground v.1.15,2013-05-02 15:40:00,
2013-05-02 11:45:00,69.4,53.0,30.17,SE,131,1.0,1.0,56,0.00,,,0.00,Wunderground v.1.15,2013-05-02 15:45:00,
2013-05-02 11:55:00,69.6,51.7,30.17,NW,313,1.0,1.0,53,0.00,,,0.00,Wunderground v.1.15,2013-05-02 15:55:00,
2013-05-02 12:00:00,69.9,53.0,30.17,SSE,163,1.0,1.0,55,0.00,,,0.00,Wunderground v.1.15,2013-05-02 16:00:00,
2013-05-02 12:10:00,70.1,53.7,30.17,West,272,1.0,3.0,56,0.00,,,0.00,Wunderground v.1.15,2013-05-02 16:10:00,
2013-05-02 12:15:00,69.9,53.0,30.17,SE,133,1.0,3.0,55,0.00,,,0.00,Wunderground v.1.15,2013-05-02 16:15:00,
2013-05-02 12:25:00,69.8,51.9,30.17,SE,145,1.0,2.0,53,0.00,,,0.00,Wunderground v.1.15,2013-05-02 16:25:00,
2013-05-02 12:30:00,69.9,54.0,30.17,SSE,166,1.0,1.0,57,0.00,,,0.00,Wunderground v.1.15,2013-05-02 16:30:00,
2013-05-02 12:40:00,71.1,54.1,30.17,SSE,167,1.0,1.0,55,0.00,,,0.00,Wunderground v.1.15,2013-05-02 16:40:00,
2013-05-02 12:45:00,71.6,52.5,30.16,SW,229,1.0,3.0,51,0.00,,,0.00,Wunderground v.1.15,2013-05-02 16:45:00,
2013-05-02 12:55:00,71.8,54.3,30.16,West,279,1.0,1.0,54,0.00,,,0.00,Wunderground v.1.15,2013-05-02 16:55:00,
2013-05-02 13:00:00,71.5,54.5,30.15,South,190,1.0,1.0,55,0.00,,,0.00,Wunderground v.1.15,2013-05-02 17:00:00,
2013-05-02 13:10:00,70.9,54.9,30.15,SSW,197,1.0,1.0,57,0.00,,,0.00,Wunderground v.1.15,2013-05-02 17:10:00,
2013-05-02 13:15:00,70.6,53.1,30.15,SE,139,1.0,1.0,54,0.00,,,0.00,Wunderground v.1.15,2013-05-02 17:15:00,
2013-05-02 13:25:00,71.3,53.8,30.15,SE,126,0.0,1.0,54,0.00,,,0.00,Wunderground v.1.15,2013-05-02 17:25:00,
2013-05-02 13:30:00,71.5,53.5,30.14,SSE,150,1.0,1.0,53,0.00,,,0.00,Wunderground v.1.15,2013-05-02 17:30:00,
2013-05-02 13:40:00,71.6,55.6,30.14,SSE,161,1.0,1.0,57,0.00,,,0.00,Wunderground v.1.15,2013-05-02 17:40:00,
2013-05-02 13:45:00,72.0,52.9,30.13,East,97,1.0,1.0,51,0.00,,,0.00,Wunderground v.1.15,2013-05-02 17:45:00,
2013-05-02 13:55:00,72.1,55.5,30.13,ESE,123,0.0,1.0,56,0.00,,,0.00,Wunderground v.1.15,2013-05-02 17:55:00,
2013-05-02 14:00:00,72.0,52.9,30.13,SSW,207,1.0,4.0,51,0.00,,,0.00,Wunderground v.1.15,2013-05-02 18:00:00,
2013-05-02 14:10:00,71.8,56.2,30.13,SSW,195,1.0,1.0,58,0.00,,,0.00,Wunderground v.1.15,2013-05-02 18:10:00,
2013-05-02 14:15:00,71.8,54.3,30.13,SSE,153,1.0,1.0,54,0.00,,,0.00,Wunderground v.1.15,2013-05-02 18:15:00,
2013-05-02 14:25:00,72.1,53.5,30.13,SSE,159,1.0,1.0,52,0.00,,,0.00,Wunderground v.1.15,2013-05-02 18:25:00,
2013-05-02 14:30:00,72.1,54.0,30.12,SE,132,1.0,1.0,53,0.00,,,0.00,Wunderground v.1.15,2013-05-02 18:30:00,
2013-05-02 14:40:00,72.0,53.9,30.12,SSW,209,1.0,4.0,53,0.00,,,0.00,Wunderground v.1.15,2013-05-02 18:40:00,
2013-05-02 14:50:00,72.3,53.7,30.12,SW,225,1.0,1.0,52,0.00,,,0.00,Wunderground v.1.15,2013-05-02 18:50:00,
2013-05-02 15:00:00,72.3,52.1,30.12,ESE,121,0.0,0.0,49,0.00,,,0.00,Wunderground v.1.15,2013-05-02 19:00:00,
2013-05-02 15:10:00,72.3,54.2,30.12,ESE,121,0.0,0.0,53,0.00,,,0.00,Wunderground v.1.15,2013-05-02 19:10:00,
2013-05-02 15:15:00,72.5,55.4,30.11,SSE,168,1.0,1.0,55,0.00,,,0.00,Wunderground v.1.15,2013-05-02 19:15:00,
2013-05-02 15:25:00,72.3,55.2,30.11,SSE,151,1.0,2.0,55,0.00,,,0.00,Wunderground v.1.15,2013-05-02 19:25:00,
2013-05-02 15:35:00,73.0,52.1,30.10,South,190,1.0,2.0,48,0.00,,,0.00,Wunderground v.1.15,2013-05-02 19:35:00,
2013-05-02 15:45:00,73.9,54.1,30.10,ESE,109,0.0,0.0,50,0.00,,,0.00,Wunderground v.1.15,2013-05-02 19:45:00,
2013-05-02 15:55:00,74.4,56.2,30.10,SSE,151,1.0,1.0,53,0.00,,,0.00,Wunderground v.1.15,2013-05-02 19:55:00,
2013-05-02 16:01:00,74.0,55.3,30.10,SE,126,1.0,1.0,52,0.00,,,0.00,Wunderground v.1.15,2013-05-02 20:01:00,
2013-05-02 16:10:00,73.9,54.1,30.10,ESE,105,0.0,1.0,50,0.00,,,0.00,Wunderground v.1.15,2013-05-02 20:10:00,
2013-05-02 16:15:00,73.7,54.4,30.09,SE,130,1.0,2.0,51,0.00,,,0.00,Wunderground v.1.15,2013-05-02 20:15:00,
2013-05-02 16:25:00,72.8,54.1,30.09,SW,222,1.0,1.0,52,0.00,,,0.00,Wunderground v.1.15,2013-05-02 20:25:00,
2013-05-02 16:30:00,73.2,55.0,30.09,SSW,196,0.0,0.0,53,0.00,,,0.00,Wunderground v.1.15,2013-05-02 20:30:00,
2013-05-02 16:40:00,73.9,54.6,30.09,South,178,1.0,1.0,51,0.00,,,0.00,Wunderground v.1.15,2013-05-02 20:40:00,
2013-05-02 16:45:00,73.9,55.2,30.09,South,184,1.0,1.0,52,0.00,,,0.00,Wunderground v.1.15,2013-05-02 20:45:00,
2013-05-02 16:55:00,74.0,55.3,30.09,SE,126,1.0,2.0,52,0.00,,,0.00,Wunderground v.1.15,2013-05-02 20:55:00,
2013-05-02 17:00:00,74.4,55.6,30.09,ESE,123,1.0,1.0,52,0.00,,,0.00,Wunderground v.1.15,2013-05-02 21:00:00,
2013-05-02 17:10:00,73.5,53.7,30.09,SE,126,1.0,1.0,50,0.00,,,0.00,Wunderground v.1.15,2013-05-02 21:10:00,
2013-05-02 17:15:00,73.0,55.9,30.08,SE,141,1.0,1.0,55,0.00,,,0.00,Wunderground v.1.15,2013-05-02 21:15:00,
2013-05-02 17:25:00,72.7,53.5,30.08,SE,140,1.0,1.0,51,0.00,,,0.00,Wunderground v.1.15,2013-05-02 21:25:00,
2013-05-02 17:30:00,72.7,54.6,30.08,SSE,147,1.0,1.0,53,0.00,,,0.00,Wunderground v.1.15,2013-05-02 21:30:00,
2013-05-02 17:40:00,73.5,55.3,30.08,WNW,300,0.0,0.0,53,0.00,,,0.00,Wunderground v.1.15,2013-05-02 21:40:00,
2013-05-02 17:45:00,73.9,54.6,30.07,SSE,165,1.0,1.0,51,0.00,,,0.00,Wunderground v.1.15,2013-05-02 21:45:00,
2013-05-02 17:55:00,74.4,54.5,30.07,WSW,238,1.0,1.0,50,0.00,,,0.00,Wunderground v.1.15,2013-05-02 21:55:00,
2013-05-02 18:00:00,74.2,52.7,30.07,SE,140,1.0,1.0,47,0.00,,,0.00,Wunderground v.1.15,2013-05-02 22:00:00,
2013-05-02 18:10:00,73.7,53.9,30.07,ESE,114,0.0,0.0,50,0.00,,,0.00,Wunderground v.1.15,2013-05-02 22:10:00,
2013-05-02 18:16:00,73.7,55.5,30.07,ESE,114,0.0,0.0,53,0.00,,,0.00,Wunderground v.1.15,2013-05-02 22:16:00,
2013-05-02 18:25:00,73.2,53.4,30.07,SSE,166,1.0,1.0,50,0.00,,,0.00,Wunderground v.1.15,2013-05-02 22:25:00,
2013-05-02 18:30:00,72.5,53.9,30.07,SSE,161,1.0,2.0,52,0.00,,,0.00,Wunderground v.1.15,2013-05-02 22:30:00,
2013-05-02 18:40:00,71.8,54.3,30.07,SSE,161,0.0,0.0,54,0.00,,,0.00,Wunderground v.1.15,2013-05-02 22:40:00,
2013-05-02 18:45:00,71.6,54.1,30.06,SSE,161,0.0,0.0,54,0.00,,,0.00,Wunderground v.1.15,2013-05-02 22:45:00,
2013-05-02 18:55:00,71.3,54.3,30.06,SSE,161,0.0,0.0,55,0.00,,,0.00,Wunderground v.1.15,2013-05-02 22:55:00,
2013-05-02 19:00:00,71.3,54.3,30.06,SSE,161,0.0,0.0,55,0.00,,,0.00,Wunderground v.1.15,2013-05-02 23:00:00,
2013-05-02 19:05:00,71.1,54.6,30.06,SSE,161,0.0,0.0,56,0.00,,,0.00,Wunderground v.1.15,2013-05-02 23:05:00,
2013-05-02 19:15:00,70.8,53.8,30.06,South,190,0.0,0.0,55,0.00,,,0.00,Wunderground v.1.15,2013-05-02 23:15:00,
2013-05-02 19:25:00,70.6,53.6,30.06,South,190,0.0,0.0,55,0.00,,,0.00,Wunderground v.1.15,2013-05-02 23:25:00,
2013-05-02 19:30:00,70.3,53.9,30.06,South,190,0.0,0.0,56,0.00,,,0.00,Wunderground v.1.15,2013-05-02 23:30:00,
2013-05-02 19:40:00,69.8,54.4,30.06,South,190,0.0,0.0,58,0.00,,,0.00,Wunderground v.1.15,2013-05-02 23:40:00,
2013-05-02 19:45:00,69.6,53.7,30.06,South,190,0.0,0.0,57,0.00,,,0.00,Wunderground v.1.15,2013-05-02 23:45:00,
2013-05-02 19:55:00,69.1,54.6,30.06,South,190,0.0,0.0,60,0.00,,,0.00,Wunderground v.1.15,2013-05-02 23:55:00,
2013-05-02 20:00:00,68.8,54.8,30.06,South,190,0.0,0.0,61,0.00,,,0.00,Wunderground v.1.15,2013-05-03 00:00:00,
2013-05-02 20:10:00,68.3,54.8,30.06,South,190,0.0,0.0,62,0.00,,,0.00,Wunderground v.1.15,2013-05-03 00:10:00,
2013-05-02 20:15:00,67.8,54.7,30.06,South,190,0.0,0.0,63,0.00,,,0.00,Wunderground v.1.15,2013-05-03 00:15:00,
2013-05-02 20:25:00,67.3,53.8,30.06,South,190,0.0,0.0,62,0.00,,,0.00,Wunderground v.1.15,2013-05-03 00:25:00,
2013-05-02 20:30:00,66.8,53.8,30.06,South,190,0.0,0.0,63,0.00,,,0.00,Wunderground v.1.15,2013-05-03 00:30:00,
2013-05-02 20:40:00,66.0,53.9,30.06,South,190,0.0,0.0,65,0.00,,,0.00,Wunderground v.1.15,2013-05-03 00:40:00,